createdAt,value
2023-05-09T00:02:01.324Z,13.40
2023-05-09T00:04:28.047Z,12.73
2023-05-09T00:06:54.527Z,13.32
2023-05-09T00:09:20.994Z,13.07
2023-05-09T00:11:47.505Z,12.10
2023-05-09T00:14:14.003Z,12.20
2023-05-09T00:16:40.805Z,11.77
2023-05-09T00:19:07.484Z,11.93
2023-05-09T00:21:34.173Z,11.73
2023-05-09T00:24:01.275Z,12.48
2023-05-09T00:26:27.903Z,12.00
2023-05-09T00:28:54.376Z,11.88
2023-05-09T00:31:21.187Z,12.65
2023-05-09T00:33:47.658Z,11.98
2023-05-09T00:36:14.099Z,13.07
2023-05-09T00:38:40.568Z,12.75
2023-05-09T00:41:07.008Z,12.60
2023-05-09T00:43:33.470Z,13.50
2023-05-09T00:45:59.975Z,12.40
2023-05-09T00:48:26.717Z,10.95
2023-05-09T00:50:53.345Z,12.55
2023-05-09T00:53:20.762Z,12.95
2023-05-09T00:55:47.360Z,12.60
2023-05-09T00:58:14.079Z,10.57
2023-05-09T01:00:40.765Z,12.32
2023-05-09T01:03:07.732Z,12.60
2023-05-09T01:06:13.217Z,12.73
2023-05-09T01:08:56.802Z,12.57
2023-05-09T01:11:33.188Z,10.07
2023-05-09T01:14:15.909Z,12.77
2023-05-09T01:16:47.601Z,13.13
2023-05-09T01:19:32.833Z,13.38
2023-05-09T01:22:00.978Z,13.00
2023-05-09T01:25:02.036Z,13.45
2023-05-09T01:27:45.189Z,12.88
2023-05-09T01:30:13.557Z,11.57
2023-05-09T01:32:42.996Z,13.35
2023-05-09T01:35:12.857Z,11.98
2023-05-09T01:37:42.546Z,14.20
2023-05-09T01:40:14.967Z,13.05
2023-05-09T01:42:44.654Z,13.88
2023-05-09T01:45:12.613Z,10.93
2023-05-09T01:47:40.663Z,13.00
2023-05-09T01:50:08.064Z,14.05
2023-05-09T01:52:35.018Z,12.38
2023-05-09T01:55:02.509Z,14.98
2023-05-09T01:57:30.530Z,13.18
2023-05-09T01:59:58.335Z,12.82
2023-05-09T02:02:27.533Z,14.65
2023-05-09T02:04:56.264Z,12.95
2023-05-09T02:07:23.961Z,13.32
2023-05-09T02:09:56.432Z,12.95
2023-05-09T02:12:24.002Z,11.43
2023-05-09T02:14:51.017Z,14.85
2023-05-09T02:17:17.814Z,13.70
2023-05-09T02:19:44.354Z,13.07
2023-05-09T02:22:12.445Z,14.20
2023-05-09T02:24:39.096Z,11.88
2023-05-09T02:27:06.120Z,13.90
2023-05-09T02:29:42.190Z,11.85
2023-05-09T02:32:16.550Z,15.07
2023-05-09T02:34:43.812Z,14.98
2023-05-09T02:37:10.869Z,12.05
2023-05-09T02:39:37.406Z,14.77
2023-05-09T02:42:10.178Z,12.50
2023-05-09T02:44:37.226Z,14.30
2023-05-09T02:47:04.740Z,13.30
2023-05-09T02:49:32.689Z,13.85
2023-05-09T02:52:01.397Z,13.88
2023-05-09T02:54:27.966Z,12.90
2023-05-09T02:56:54.470Z,13.23
2023-05-09T02:59:21.128Z,11.55
2023-05-09T03:01:47.752Z,11.02
2023-05-09T03:04:16.519Z,13.60
2023-05-09T03:06:43.025Z,12.60
2023-05-09T03:09:09.907Z,9.48
2023-05-09T03:11:39.243Z,10.02
2023-05-09T03:14:06.257Z,13.32
2023-05-09T03:16:32.752Z,12.23
2023-05-09T03:18:59.701Z,9.45
2023-05-09T03:21:26.308Z,10.27
2023-05-09T03:23:52.862Z,12.25
2023-05-09T03:26:19.331Z,10.45
2023-05-09T03:28:46.314Z,10.00
2023-05-09T03:31:12.911Z,12.38
2023-05-09T03:33:39.405Z,12.15
2023-05-09T03:36:07.140Z,8.38
2023-05-09T03:38:34.064Z,10.85
2023-05-09T03:41:00.687Z,10.90
2023-05-09T03:43:27.424Z,12.95
2023-05-09T03:45:54.335Z,10.98
2023-05-09T03:48:20.794Z,10.68
2023-05-09T03:50:50.999Z,10.30
2023-05-09T03:53:20.336Z,11.65
2023-05-09T03:55:47.969Z,12.48
2023-05-09T03:58:15.919Z,11.20
2023-05-09T04:00:43.541Z,11.30
2023-05-09T04:03:16.206Z,11.30
2023-05-09T04:05:46.313Z,11.52
2023-05-09T04:08:22.866Z,11.98
2023-05-09T04:10:50.236Z,10.40
2023-05-09T04:13:16.883Z,11.90
2023-05-09T04:15:43.533Z,13.23
2023-05-09T04:18:10.118Z,14.10
2023-05-09T04:20:36.675Z,10.93
2023-05-09T04:23:03.512Z,12.00
2023-05-09T04:25:31.582Z,12.38
2023-05-09T04:27:58.207Z,10.55
2023-05-09T04:30:27.036Z,11.43
2023-05-09T04:32:55.460Z,11.57
2023-05-09T04:35:22.675Z,10.00
2023-05-09T04:37:51.921Z,10.35
2023-05-09T04:40:18.538Z,9.68
2023-05-09T04:45:21.833Z,8.98
2023-05-09T04:47:48.587Z,9.20
2023-05-09T04:50:16.495Z,8.65
2023-05-09T04:52:42.977Z,8.70
2023-05-09T04:55:10.560Z,8.90
2023-05-09T04:57:41.191Z,8.98
2023-05-09T05:00:08.206Z,8.10
2023-05-09T05:02:35.736Z,7.97
2023-05-09T05:05:11.493Z,7.65
2023-05-09T05:07:39.875Z,7.90
2023-05-09T05:10:07.168Z,7.93
2023-05-09T05:12:35.828Z,7.43
2023-05-09T05:15:02.577Z,6.90
2023-05-09T05:17:29.537Z,7.45
2023-05-09T05:19:58.189Z,7.22
2023-05-09T05:22:26.548Z,7.28
2023-05-09T05:24:53.093Z,6.80
2023-05-09T05:27:19.545Z,6.95
2023-05-09T05:29:46.502Z,6.43
2023-05-09T05:32:13.069Z,6.88
2023-05-09T05:34:39.824Z,6.93
2023-05-09T05:37:06.360Z,6.40
2023-05-09T05:39:32.890Z,6.57
2023-05-09T05:41:59.401Z,6.45
2023-05-09T05:44:26.512Z,6.38
2023-05-09T05:46:53.188Z,6.07
2023-05-09T05:49:19.822Z,5.95
2023-05-09T05:51:46.359Z,5.90
2023-05-09T05:54:12.964Z,6.07
2023-05-09T05:56:39.428Z,5.22
2023-05-09T05:59:06.792Z,6.03
2023-05-09T06:01:33.388Z,5.40
2023-05-09T06:04:00.020Z,5.20
2023-05-09T06:06:29.500Z,5.53
2023-05-09T06:08:56.364Z,4.70
2023-05-09T06:11:23.391Z,4.85
2023-05-09T06:13:49.866Z,5.63
2023-05-09T06:16:20.079Z,4.90
2023-05-09T06:18:49.896Z,5.90
2023-05-09T06:21:16.476Z,5.18
2023-05-09T06:23:57.584Z,5.15
2023-05-09T06:26:28.402Z,4.75
2023-05-09T06:28:55.098Z,4.55
2023-05-09T06:31:22.011Z,4.40
2023-05-09T06:33:49.529Z,4.53
2023-05-09T06:36:16.003Z,4.60
2023-05-09T06:38:42.442Z,4.07
2023-05-09T06:41:08.893Z,4.63
2023-05-09T06:43:35.362Z,4.32
2023-05-09T06:46:02.429Z,4.60
2023-05-09T06:48:28.911Z,4.15
2023-05-09T06:50:55.456Z,4.20
2023-05-09T06:53:21.961Z,4.72
2023-05-09T06:55:48.506Z,4.38
2023-05-09T06:58:15.302Z,4.50
2023-05-09T07:00:41.807Z,4.50
2023-05-09T07:03:08.359Z,4.72
2023-05-09T07:05:34.976Z,4.75
2023-05-09T07:08:01.515Z,4.20
2023-05-09T07:10:28.120Z,4.40
2023-05-09T07:12:54.616Z,4.00
2023-05-09T07:15:36.815Z,4.15
2023-05-09T07:18:03.730Z,3.90
2023-05-09T07:20:30.234Z,4.40
2023-05-09T07:22:58.327Z,3.95
2023-05-09T07:25:24.885Z,4.40
2023-05-09T07:27:51.361Z,4.55
2023-05-09T07:30:17.897Z,4.15
2023-05-09T07:32:44.404Z,4.47
2023-05-09T07:35:10.889Z,4.22
2023-05-09T07:37:37.394Z,4.30
2023-05-09T07:40:06.017Z,4.00
2023-05-09T07:42:35.135Z,4.35
2023-05-09T07:45:01.616Z,4.63
2023-05-09T07:47:28.165Z,4.50
2023-05-09T07:49:54.695Z,4.53
2023-05-09T07:52:21.173Z,4.32
2023-05-09T07:54:47.696Z,4.15
2023-05-09T07:57:14.289Z,4.38
2023-05-09T07:59:41.069Z,4.20
2023-05-09T08:02:07.570Z,4.97
2023-05-09T08:04:34.149Z,4.25
2023-05-09T08:07:04.028Z,4.85
2023-05-09T08:09:30.645Z,4.57
2023-05-09T08:11:57.114Z,4.82
2023-05-09T08:14:23.575Z,4.53
2023-05-09T08:16:50.150Z,4.82
2023-05-09T08:19:17.059Z,4.85
2023-05-09T08:21:43.554Z,4.95
2023-05-09T08:24:10.034Z,5.05
2023-05-09T08:26:36.540Z,4.95
2023-05-09T08:29:03.018Z,4.97
2023-05-09T08:31:29.532Z,4.90
2023-05-09T08:33:56.040Z,4.68
2023-05-09T08:36:22.499Z,4.38
2023-05-09T08:38:49.466Z,5.50
2023-05-09T08:41:16.329Z,4.70
2023-05-09T08:43:43.156Z,5.00
2023-05-09T08:46:10.890Z,4.93
2023-05-09T08:48:38.150Z,4.68
2023-05-09T08:51:05.992Z,4.60
2023-05-09T08:53:33.163Z,4.97
2023-05-09T08:56:01.659Z,4.72
2023-05-09T08:58:28.485Z,5.40
2023-05-09T09:00:58.241Z,4.68
2023-05-09T09:03:27.608Z,5.03
2023-05-09T09:05:54.958Z,4.88
2023-05-09T09:08:22.337Z,5.10
2023-05-09T09:10:48.964Z,5.00
2023-05-09T09:13:17.430Z,4.68
2023-05-09T09:15:45.669Z,4.70
2023-05-09T09:18:16.436Z,5.30
2023-05-09T09:20:48.579Z,5.05
2023-05-09T09:23:19.849Z,5.32
2023-05-09T09:25:47.465Z,5.38
2023-05-09T09:28:13.927Z,5.00
2023-05-09T09:30:44.654Z,5.03
2023-05-09T09:33:18.994Z,5.13
2023-05-09T09:35:45.484Z,5.18
2023-05-09T09:38:11.970Z,4.80
2023-05-09T09:40:40.532Z,5.28
2023-05-09T09:43:07.689Z,4.88
2023-05-09T09:45:34.176Z,4.97
2023-05-09T09:48:06.049Z,4.80
2023-05-09T09:50:32.563Z,4.40
2023-05-09T09:53:00.883Z,4.63
2023-05-09T09:55:27.488Z,4.90
2023-05-09T09:57:53.969Z,4.63
2023-05-09T10:00:26.081Z,4.72
2023-05-09T10:02:54.462Z,4.65
2023-05-09T10:05:21.535Z,5.10
2023-05-09T10:07:59.411Z,4.32
2023-05-09T10:10:31.146Z,4.43
2023-05-09T10:13:00.430Z,4.57
2023-05-09T10:15:30.045Z,4.60
2023-05-09T10:18:01.251Z,4.55
2023-05-09T10:20:28.291Z,5.15
2023-05-09T10:22:57.131Z,5.20
2023-05-09T10:25:28.942Z,5.30
2023-05-09T10:27:59.983Z,4.72
2023-05-09T10:30:35.980Z,5.30
2023-05-09T10:33:04.750Z,5.22
2023-05-09T10:35:33.588Z,5.22
2023-05-09T10:38:01.883Z,5.57
2023-05-09T10:40:28.866Z,5.10
2023-05-09T10:42:55.348Z,5.18
2023-05-09T10:45:22.228Z,4.85
2023-05-09T10:47:50.658Z,5.03
2023-05-09T10:50:17.650Z,4.97
2023-05-09T10:53:03.754Z,5.03
2023-05-09T10:55:56.554Z,3.97
2023-05-09T10:58:27.106Z,5.00
2023-05-09T11:00:57.144Z,4.78
2023-05-09T11:03:28.957Z,4.28
2023-05-09T11:05:57.264Z,4.47
2023-05-09T11:08:25.481Z,4.45
2023-05-09T11:11:02.586Z,4.40
2023-05-09T11:13:33.325Z,4.03
2023-05-09T11:16:02.981Z,4.43
2023-05-09T11:18:30.495Z,4.13
2023-05-09T11:20:57.016Z,4.60
2023-05-09T11:23:27.178Z,4.53
2023-05-09T11:25:53.748Z,4.20
2023-05-09T11:28:31.195Z,4.20
2023-05-09T11:31:15.040Z,3.70
2023-05-09T11:33:43.255Z,3.67
2023-05-09T11:36:27.889Z,3.47
2023-05-09T11:39:24.832Z,3.72
2023-05-09T11:41:51.330Z,3.92
2023-05-09T11:44:21.592Z,3.53
2023-05-09T11:46:49.203Z,3.97
2023-05-09T11:49:15.872Z,3.50
2023-05-09T11:51:42.584Z,3.50
2023-05-09T11:54:09.220Z,2.72
2023-05-09T11:56:37.583Z,3.53
2023-05-09T11:59:04.133Z,2.83
2023-05-09T12:01:30.696Z,2.83
2023-05-09T12:04:02.149Z,3.17
2023-05-09T12:06:30.083Z,2.90
2023-05-09T12:08:57.757Z,3.25
2023-05-09T12:11:24.601Z,2.85
2023-05-09T12:13:52.603Z,3.10
2023-05-09T12:16:20.237Z,2.42
2023-05-09T12:18:48.271Z,2.65
2023-05-09T12:21:15.625Z,3.20
2023-05-09T12:23:42.070Z,3.10
2023-05-09T12:26:08.581Z,3.17
2023-05-09T12:28:36.250Z,3.22
2023-05-09T12:31:04.042Z,2.97
2023-05-09T12:33:31.418Z,3.67
2023-05-09T12:36:16.248Z,2.60
2023-05-09T12:38:52.915Z,2.85
2023-05-09T12:41:34.885Z,2.50
2023-05-09T12:44:06.094Z,2.78
2023-05-09T12:46:32.737Z,3.05
2023-05-09T12:48:59.517Z,2.70
2023-05-09T12:51:26.055Z,2.65
2023-05-09T12:53:52.573Z,2.33
2023-05-09T12:56:20.738Z,1.92
2023-05-09T12:58:54.851Z,2.30
2023-05-09T13:01:24.000Z,2.60
2023-05-09T13:04:02.374Z,2.80
2023-05-09T13:06:29.011Z,2.80
2023-05-09T13:09:00.408Z,2.40
2023-05-09T13:11:27.283Z,2.60
2023-05-09T13:13:54.822Z,2.50
2023-05-09T13:16:21.893Z,2.38
2023-05-09T13:18:48.431Z,2.47
2023-05-09T13:21:15.014Z,2.28
2023-05-09T13:23:42.209Z,2.35
2023-05-09T13:26:08.676Z,2.15
2023-05-09T13:28:35.118Z,2.92
2023-05-09T13:31:01.688Z,2.25
2023-05-09T13:33:28.182Z,2.17
2023-05-09T13:35:54.748Z,2.10
2023-05-09T13:38:21.264Z,2.60
2023-05-09T13:40:47.761Z,2.45
2023-05-09T13:43:14.230Z,2.47
2023-05-09T13:45:40.705Z,2.45
2023-05-09T13:48:07.673Z,2.13
2023-05-09T13:50:34.298Z,2.40
2023-05-09T13:53:00.818Z,2.30
2023-05-09T13:55:27.704Z,2.20
2023-05-09T13:57:54.716Z,2.10
2023-05-09T14:00:21.847Z,2.25
2023-05-09T14:02:48.939Z,1.90
2023-05-09T14:05:15.570Z,2.10
2023-05-09T14:07:42.857Z,1.98
2023-05-09T14:10:16.501Z,2.10
2023-05-09T14:12:47.220Z,2.10
2023-05-09T14:15:14.038Z,1.95
2023-05-09T14:17:40.718Z,2.03
2023-05-09T14:20:08.189Z,2.33
2023-05-09T14:22:34.699Z,2.20
2023-05-09T14:25:01.228Z,2.30
2023-05-09T14:27:27.744Z,2.40
2023-05-09T14:29:54.356Z,2.17
2023-05-09T14:32:21.040Z,1.88
2023-05-09T14:34:49.621Z,2.08
2023-05-09T14:37:16.255Z,2.10
2023-05-09T14:39:43.909Z,2.30
2023-05-09T14:42:11.573Z,1.88
2023-05-09T14:44:38.601Z,2.05
2023-05-09T14:47:05.316Z,1.95
2023-05-09T14:49:32.447Z,2.08
2023-05-09T14:51:58.984Z,2.38
2023-05-09T14:54:25.609Z,1.70
2023-05-09T14:56:52.058Z,1.90
2023-05-09T14:59:18.628Z,2.15
2023-05-09T15:01:46.268Z,1.90
2023-05-09T15:04:12.895Z,1.88
2023-05-09T15:06:39.658Z,2.20
2023-05-09T15:09:06.193Z,2.17
2023-05-09T15:11:43.630Z,1.92
2023-05-09T15:14:14.747Z,2.20
2023-05-09T15:16:41.485Z,2.17
2023-05-09T15:19:08.275Z,2.10
2023-05-09T15:21:35.097Z,2.00
2023-05-09T15:24:02.415Z,1.90
2023-05-09T15:26:29.190Z,2.20
2023-05-09T15:28:55.669Z,1.88
2023-05-09T15:31:23.298Z,2.00
2023-05-09T15:33:49.816Z,2.00
2023-05-09T15:36:16.342Z,2.10
2023-05-09T15:38:42.850Z,1.90
2023-05-09T15:41:09.419Z,1.80
2023-05-09T15:43:35.876Z,1.88
2023-05-09T15:46:02.487Z,1.92
2023-05-09T15:48:28.978Z,1.80
2023-05-09T15:50:55.602Z,2.13
2023-05-09T15:53:23.180Z,1.80
2023-05-09T15:55:49.894Z,1.73
2023-05-09T15:58:16.488Z,1.83
2023-05-09T16:00:42.997Z,1.80
2023-05-09T16:03:09.598Z,2.13
2023-05-09T16:05:36.203Z,1.58
2023-05-09T16:08:02.907Z,1.80
2023-05-09T16:10:29.416Z,1.90
2023-05-09T16:12:55.922Z,1.50
2023-05-09T16:15:22.477Z,1.85
2023-05-09T16:17:48.928Z,1.63
2023-05-09T16:20:15.646Z,1.63
2023-05-09T16:22:42.418Z,1.67
2023-05-09T16:25:09.310Z,1.50
2023-05-09T16:27:35.816Z,1.70
2023-05-09T16:30:03.004Z,2.20
2023-05-09T16:32:29.521Z,2.17
2023-05-09T16:34:56.047Z,1.90
2023-05-09T16:37:23.437Z,2.20
2023-05-09T16:39:50.195Z,2.50
2023-05-09T16:42:16.963Z,2.10
2023-05-09T16:44:43.506Z,2.00
2023-05-09T16:47:10.070Z,2.50
2023-05-09T16:49:36.586Z,2.15
2023-05-09T16:52:03.115Z,2.35
2023-05-09T16:54:31.139Z,2.15
2023-05-09T16:56:57.636Z,2.30
2023-05-09T16:59:24.131Z,2.30
2023-05-09T17:01:51.050Z,2.58
2023-05-09T17:04:17.596Z,2.30
2023-05-09T17:06:44.085Z,2.45
2023-05-09T17:09:10.592Z,2.70
2023-05-09T17:11:37.062Z,2.30
2023-05-09T17:14:03.547Z,2.45
2023-05-09T17:16:30.194Z,2.55
2023-05-09T17:18:56.729Z,2.40
2023-05-09T17:21:23.417Z,2.55
2023-05-09T17:23:49.922Z,2.38
2023-05-09T17:26:16.436Z,2.28
2023-05-09T17:28:43.094Z,2.40
2023-05-09T17:31:09.818Z,2.45
2023-05-09T17:33:36.418Z,2.35
2023-05-09T17:36:02.913Z,2.67
2023-05-09T17:38:30.064Z,2.33
2023-05-09T17:40:56.533Z,2.95
2023-05-09T17:43:24.030Z,2.80
2023-05-09T17:45:51.877Z,2.83
2023-05-09T17:48:18.529Z,2.42
2023-05-09T17:50:46.552Z,3.17
2023-05-09T17:53:13.442Z,3.08
2023-05-09T17:55:41.326Z,2.55
2023-05-09T17:58:08.192Z,3.13
2023-05-09T18:00:34.750Z,2.70
2023-05-09T18:03:03.674Z,2.90
2023-05-09T18:05:30.425Z,3.00
2023-05-09T18:07:57.471Z,3.35
2023-05-09T18:10:24.115Z,3.17
2023-05-09T18:12:50.854Z,3.33
2023-05-09T18:15:17.348Z,2.58
2023-05-09T18:17:46.078Z,2.80
2023-05-09T18:20:12.810Z,3.00
2023-05-09T18:22:39.508Z,3.03
2023-05-09T18:25:06.402Z,3.45
2023-05-09T18:27:32.868Z,2.85
2023-05-09T18:29:59.350Z,3.40
2023-05-09T18:32:25.948Z,3.00
2023-05-09T18:34:52.544Z,3.30
2023-05-09T18:37:19.219Z,3.00
2023-05-09T18:39:45.851Z,3.10
2023-05-09T18:42:14.542Z,3.40
2023-05-09T18:44:42.564Z,3.63
2023-05-09T18:47:09.236Z,3.30
2023-05-09T18:49:36.154Z,4.63
2023-05-09T18:52:03.450Z,5.00
2023-05-09T18:54:30.073Z,4.07
2023-05-09T18:56:56.589Z,3.47
2023-05-09T18:59:23.533Z,3.63
2023-05-09T19:01:50.287Z,3.67
2023-05-09T19:04:17.432Z,3.75
2023-05-09T19:06:44.154Z,3.50
2023-05-09T19:09:11.500Z,3.58
2023-05-09T19:11:38.092Z,3.22
2023-05-09T19:14:05.114Z,3.42
2023-05-09T19:16:31.866Z,3.63
2023-05-09T19:18:58.486Z,3.53
2023-05-09T19:21:25.467Z,3.90
2023-05-09T19:23:52.306Z,3.80
2023-05-09T19:26:19.690Z,4.10
2023-05-09T19:28:46.778Z,4.65
2023-05-09T19:31:14.492Z,4.57
2023-05-09T19:33:42.647Z,4.20
2023-05-09T19:36:09.129Z,4.03
2023-05-09T19:38:35.664Z,4.10
2023-05-09T19:41:02.172Z,4.70
2023-05-09T19:43:28.699Z,4.65
2023-05-09T19:45:55.309Z,4.03
2023-05-09T19:48:22.014Z,4.07
2023-05-09T19:50:48.833Z,4.50
2023-05-09T19:53:15.290Z,4.63
2023-05-09T19:55:43.788Z,5.47
2023-05-09T19:58:10.245Z,5.25
2023-05-09T20:00:38.787Z,4.72
2023-05-09T20:03:05.339Z,4.60
2023-05-09T20:05:31.973Z,3.85
2023-05-09T20:07:58.463Z,4.00
2023-05-09T20:10:24.945Z,4.00
2023-05-09T20:12:52.999Z,4.40
2023-05-09T20:15:19.537Z,4.93
2023-05-09T20:17:47.049Z,4.43
2023-05-09T20:20:13.735Z,4.40
2023-05-09T20:22:40.367Z,4.43
2023-05-09T20:25:07.047Z,4.00
2023-05-09T20:27:35.399Z,4.40
2023-05-09T20:30:03.499Z,4.35
2023-05-09T20:32:30.285Z,4.35
2023-05-09T20:34:56.999Z,4.45
2023-05-09T20:37:23.463Z,4.22
2023-05-09T20:39:49.973Z,4.18
2023-05-09T20:42:16.421Z,3.95
2023-05-09T20:44:42.927Z,4.65
2023-05-09T20:47:09.430Z,4.80
2023-05-09T20:49:35.928Z,4.65
2023-05-09T20:52:02.443Z,4.80
2023-05-09T20:54:30.849Z,4.60
2023-05-09T20:56:57.499Z,4.93
2023-05-09T20:59:23.969Z,4.70
2023-05-09T21:01:52.161Z,5.25
2023-05-09T21:04:18.725Z,4.50
2023-05-09T21:06:45.197Z,4.82
2023-05-09T21:09:11.675Z,4.78
2023-05-09T21:11:39.567Z,4.78
2023-05-09T21:14:06.608Z,5.13
2023-05-09T21:16:33.085Z,5.18
2023-05-09T21:19:02.496Z,4.85
2023-05-09T21:21:29.167Z,4.68
2023-05-09T21:23:55.731Z,5.53
2023-05-09T21:26:23.138Z,5.25
2023-05-09T21:28:49.621Z,5.50
2023-05-09T21:31:16.076Z,5.47
2023-05-09T21:33:42.577Z,4.93
2023-05-09T21:36:09.080Z,5.22
2023-05-09T21:38:35.583Z,5.40
2023-05-09T21:41:02.153Z,5.55
2023-05-09T21:43:28.966Z,5.63
2023-05-09T21:45:55.920Z,5.53
2023-05-09T21:48:22.505Z,5.25
2023-05-09T21:50:49.059Z,5.20
2023-05-09T21:53:15.550Z,5.60
2023-05-09T21:55:42.034Z,5.18
2023-05-09T21:58:08.514Z,5.07
2023-05-09T22:00:35.074Z,5.85
2023-05-09T22:03:01.821Z,5.93
2023-05-09T22:05:28.356Z,5.45
2023-05-09T22:07:54.915Z,5.50
2023-05-09T22:10:21.376Z,5.75
2023-05-09T22:12:48.349Z,5.63
2023-05-09T22:15:14.901Z,5.55
2023-05-09T22:17:41.514Z,5.70
2023-05-09T22:20:09.100Z,5.60
2023-05-09T22:22:35.566Z,5.35
2023-05-09T22:25:03.783Z,5.45
2023-05-09T22:27:30.427Z,5.60
2023-05-09T22:29:57.044Z,6.00
2023-05-09T22:32:23.544Z,5.65
2023-05-09T22:34:50.045Z,6.10
2023-05-09T22:37:16.583Z,5.88
2023-05-09T22:39:44.357Z,6.00
2023-05-09T22:42:11.312Z,5.93
2023-05-09T22:44:38.955Z,6.15
2023-05-09T22:47:07.746Z,5.88
2023-05-09T22:49:35.419Z,5.22
2023-05-09T22:52:02.200Z,5.63
2023-05-09T22:54:28.720Z,5.93
2023-05-09T22:56:55.228Z,6.20
2023-05-09T22:59:22.507Z,6.55
2023-05-09T23:01:49.115Z,6.65
2023-05-09T23:04:15.595Z,6.15
2023-05-09T23:06:42.074Z,6.60
2023-05-09T23:09:08.524Z,6.22
2023-05-09T23:11:34.954Z,6.28
2023-05-09T23:14:01.482Z,6.57
2023-05-09T23:16:28.012Z,6.22
2023-05-09T23:18:54.457Z,6.28
2023-05-09T23:21:20.956Z,6.28
2023-05-09T23:23:47.471Z,6.65
2023-05-09T23:26:13.906Z,6.18
2023-05-09T23:28:40.376Z,6.60
2023-05-09T23:31:06.861Z,6.90
2023-05-09T23:33:33.462Z,6.13
2023-05-09T23:35:59.958Z,6.43
2023-05-09T23:38:26.416Z,6.97
2023-05-09T23:40:53.109Z,6.68
2023-05-09T23:43:19.584Z,6.57
2023-05-09T23:45:46.048Z,6.72
2023-05-09T23:48:12.600Z,6.50
2023-05-09T23:50:39.101Z,6.82
2023-05-09T23:53:06.496Z,6.53
2023-05-09T23:55:33.240Z,7.05
2023-05-09T23:58:00.685Z,6.50
